Time;durP1;ratioP1;P1;durP2;ratioP2;P2;SDS_P1;SDS_P2;PMS_P1;PMS_P2;Temp;Humidity;BMP_temperature;BMP_pressure;BME280_temperature;BME280_humidity;BME280_pressure;Samples;Min_cycle;Max_cycle;Signal;HPM_P1;HPM_P2
2022/08/28 06:17:29;;;;;;;9.25;1.80;;;19.70;64.00;;;;;;6152527;23;20048;-72
2022/08/28 06:19:55;;;;;;;11.95;1.65;;;19.70;65.00;;;;;;6158361;23;20022;-74
2022/08/28 06:22:21;;;;;;;19.40;1.85;;;19.70;65.10;;;;;;6158510;23;20056;-80
2022/08/28 06:24:46;;;;;;;11.13;1.80;;;19.70;65.00;;;;;;6155752;23;20092;-77
2022/08/28 06:27:12;;;;;;;13.80;1.83;;;19.70;65.40;;;;;;6132929;23;20202;-75
2022/08/28 06:29:38;;;;;;;13.00;1.50;;;19.70;65.30;;;;;;6133328;23;20017;-75
2022/08/28 06:32:04;;;;;;;7.47;1.48;;;19.70;65.10;;;;;;6158599;23;20410;-77
2022/08/28 06:34:30;;;;;;;11.18;1.80;;;19.70;65.50;;;;;;6159065;23;20024;-75
2022/08/28 06:36:56;;;;;;;17.00;2.20;;;19.70;65.60;;;;;;6159034;23;20275;-79
2022/08/28 06:39:22;;;;;;;19.77;2.70;;;19.80;65.70;;;;;;6159011;23;20025;-78
2022/08/28 06:41:47;;;;;;;14.02;1.75;;;19.80;65.60;;;;;;6133918;23;20314;-78
2022/08/28 06:44:18;;;;;;;7.57;1.52;;;19.80;65.30;;;;;;6158162;23;20025;-77
2022/08/28 06:46:48;;;;;;;8.80;1.75;;;19.70;64.50;;;;;;6158540;23;20288;-76
2022/08/28 06:49:14;;;;;;;13.95;1.88;;;19.70;64.80;;;;;;6158495;23;20418;-76
2022/08/28 06:51:40;;;;;;;12.85;1.85;;;19.70;64.80;;;;;;6158857;23;20017;-77
2022/08/28 06:54:06;;;;;;;12.45;1.65;;;19.70;64.70;;;;;;6158621;23;20017;-77
2022/08/28 06:56:32;;;;;;;7.63;2.05;;;19.70;64.80;;;;;;6157854;23;20032;-76
2022/08/28 06:58:59;;;;;;;16.33;2.35;;;19.70;64.30;;;;;;6158743;23;20013;-77
2022/08/28 07:01:35;;;;;;;16.50;2.17;;;19.60;64.50;;;;;;6158605;23;20093;-76
2022/08/28 07:04:05;;;;;;;13.50;2.13;;;19.70;64.10;;;;;;6132933;23;20017;-75
2022/08/28 07:06:34;;;;;;;11.95;1.40;;;19.70;64.40;;;;;;6158166;23;20085;-79
2022/08/28 07:09:01;;;;;;;11.20;1.85;;;19.70;63.70;;;;;;6158516;23;20029;-77
2022/08/28 07:11:30;;;;;;;6.25;1.80;;;19.70;64.30;;;;;;6158745;23;20013;-77
2022/08/28 07:13:57;;;;;;;8.30;1.70;;;19.60;64.00;;;;;;6132326;23;20013;-81
2022/08/28 07:16:26;;;;;;;5.88;1.35;;;19.70;63.60;;;;;;6131364;23;20318;-76
2022/08/28 08:16:33;;;;;;;3.72;1.50;;;20.20;62.40;;;;;;6217603;23;20040;-77
2022/08/28 08:19:00;;;;;;;3.55;0.93;;;20.20;62.30;;;;;;6192182;23;20030;-74
2022/08/28 08:21:27;;;;;;;6.32;1.40;;;20.20;62.00;;;;;;6191560;23;20031;-77
2022/08/28 08:23:52;;;;;;;3.95;1.00;;;20.20;62.00;;;;;;6192089;23;20440;-78
2022/08/28 08:26:22;;;;;;;2.88;0.73;;;20.20;61.90;;;;;;6217663;23;20055;-76
2022/08/28 08:28:49;;;;;;;3.70;0.77;;;20.20;61.90;;;;;;6217365;23;20028;-77
2022/08/28 08:31:20;;;;;;;4.00;1.10;;;20.10;61.90;;;;;;6217987;23;20012;-77
2022/08/28 08:33:48;;;;;;;5.57;1.27;;;20.10;61.90;;;;;;6217938;23;20388;-77
2022/08/28 08:36:17;;;;;;;3.50;1.00;;;20.10;62.00;;;;;;6217621;23;20337;-80
2022/08/28 08:38:43;;;;;;;5.15;0.98;;;20.10;61.70;;;;;;6217667;23;20024;-79
2022/08/28 08:41:31;;;;;;;4.72;1.02;;;20.10;62.00;;;;;;6190676;23;20106;-76
2022/08/28 08:44:08;;;;;;;7.90;1.35;;;20.20;62.10;;;;;;6165969;23;20020;-77
2022/08/28 08:53:18;;;;;;;8.80;1.63;;;20.20;62.90;;;;;;6176648;23;20321;-78
2022/08/28 08:55:45;;;;;;;6.43;1.30;;;20.20;62.50;;;;;;6161897;23;20032;-81
2022/08/28 11:03:25;;;;;;;12.48;2.28;;;21.00;61.60;;;;;;6247490;23;20313;-73
2022/08/28 11:06:00;;;;;;;19.15;1.95;;;21.00;61.60;;;;;;6248883;23;20024;-75
2022/08/28 11:08:33;;;;;;;13.60;1.52;;;21.00;61.60;;;;;;6249271;23;20109;-74
2022/08/28 11:11:01;;;;;;;10.37;1.87;;;21.00;62.00;;;;;;6248838;23;20262;-73
2022/08/28 11:13:48;;;;;;;7.40;1.67;;;21.00;62.40;;;;;;6248845;23;20326;-72
2022/08/28 11:16:29;;;;;;;5.45;1.42;;;21.00;62.70;;;;;;6222383;23;20024;-73
2022/08/28 11:19:19;;;;;;;5.97;1.38;;;21.00;62.90;;;;;;6249291;23;20020;-73
2022/08/28 11:21:54;;;;;;;6.53;1.73;;;21.00;63.00;;;;;;6248626;23;20016;-73
2022/08/28 11:24:38;;;;;;;5.35;1.40;;;21.00;63.10;;;;;;6248193;23;20027;-74
2022/08/28 11:27:25;;;;;;;4.93;1.30;;;21.00;63.40;;;;;;6248248;23;20020;-73
2022/08/28 11:30:13;;;;;;;8.07;1.58;;;21.00;63.40;;;;;;6249167;23;20016;-73
2022/08/28 11:32:56;;;;;;;6.75;1.75;;;21.00;63.50;;;;;;6247661;23;20487;-74
2022/08/28 11:35:36;;;;;;;4.60;1.52;;;21.00;63.60;;;;;;6249755;23;20074;-72
2022/08/28 11:38:03;;;;;;;4.40;1.25;;;21.10;63.70;;;;;;6248599;23;20020;-74
2022/08/28 11:40:31;;;;;;;4.60;0.90;;;21.10;63.70;;;;;;6248474;23;20023;-74
2022/08/28 11:43:15;;;;;;;3.63;1.20;;;21.10;63.80;;;;;;6248896;23;20016;-73
2022/08/28 11:45:49;;;;;;;;;;;21.10;63.80;;;;;;6248878;23;20020;-74
2022/08/28 11:48:27;;;;;;;3.97;1.00;;;21.10;63.80;;;;;;6248543;23;19926;-73
2022/08/28 11:50:57;;;;;;;4.68;1.02;;;21.10;63.90;;;;;;6248263;23;20019;-73
2022/08/28 11:53:32;;;;;;;8.80;1.48;;;21.00;63.90;;;;;;6249232;23;20031;-74
2022/08/28 11:56:01;;;;;;;5.15;1.10;;;21.10;63.60;;;;;;6248124;23;20424;-74
2022/08/28 11:58:34;;;;;;;5.75;0.90;;;21.10;63.30;;;;;;6221874;23;20361;-74
2022/08/28 12:01:09;;;;;;;5.53;1.02;;;21.10;63.30;;;;;;6247924;23;20043;-74
2022/08/28 12:03:53;;;;;;;7.45;1.42;;;21.10;62.80;;;;;;6248689;23;20039;-71
2022/08/28 12:06:48;;;;;;;7.20;1.00;;;21.10;62.20;;;;;;6247920;23;20087;-73
2022/08/28 12:09:37;;;;;;;7.70;1.10;;;21.10;62.20;;;;;;6248612;23;20324;-74
2022/08/28 12:12:21;;;;;;;22.40;2.33;;;21.10;62.20;;;;;;6247921;23;20016;-74
2022/08/28 12:14:46;;;;;;;8.73;1.45;;;21.10;62.60;;;;;;6221453;23;20019;-74
2022/08/28 12:17:21;;;;;;;10.65;1.80;;;21.10;62.60;;;;;;6248298;23;20086;-73
2022/08/28 12:19:55;;;;;;;10.40;1.70;;;21.10;63.00;;;;;;6247835;23;20073;-74
2022/08/28 12:22:24;;;;;;;10.35;1.90;;;21.10;62.90;;;;;;6248180;23;20109;-74
2022/08/28 12:24:57;;;;;;;12.13;1.50;;;21.20;62.90;;;;;;6247683;23;20012;-76
2022/08/28 12:27:24;;;;;;;9.05;2.28;;;21.10;63.00;;;;;;6248147;23;20016;-76
2022/08/28 12:29:53;;;;;;;10.27;1.67;;;21.20;63.10;;;;;;6248481;23;20031;-76
2022/08/28 12:32:28;;;;;;;12.15;2.42;;;21.20;63.20;;;;;;6248178;23;20047;-75
2022/08/28 12:35:08;;;;;;;8.23;1.95;;;21.20;63.60;;;;;;6247387;23;20070;-76
2022/08/28 12:37:39;;;;;;;8.60;1.45;;;21.20;63.60;;;;;;6248750;23;20016;-76
2022/08/28 12:40:08;;;;;;;9.73;1.70;;;21.20;63.50;;;;;;6246703;23;20020;-75
2022/08/28 12:42:38;;;;;;;5.75;1.00;;;21.20;63.90;;;;;;6245493;23;20188;-74
2022/08/28 12:45:08;;;;;;;6.40;1.50;;;21.20;62.70;;;;;;6247822;23;20059;-75
2022/08/28 12:47:36;;;;;;;7.78;1.30;;;21.20;62.50;;;;;;6248003;23;20028;-75
2022/08/28 12:50:26;;;;;;;6.25;1.20;;;21.20;62.00;;;;;;6221625;23;20013;-74
2022/08/28 12:52:55;;;;;;;5.93;1.75;;;21.20;62.20;;;;;;6248579;23;20065;-76
2022/08/28 12:55:22;;;;;;;5.00;1.20;;;21.10;61.90;;;;;;6247728;23;20087;-75
2022/08/28 12:57:48;;;;;;;10.57;1.77;;;21.10;61.90;;;;;;6247578;23;20022;-77
2022/08/28 13:00:25;;;;;;;15.15;1.45;;;21.20;61.90;;;;;;6247595;23;20400;-75
2022/08/28 13:02:55;;;;;;;12.05;1.48;;;21.20;62.20;;;;;;6247669;23;20047;-74
2022/08/28 13:05:30;;;;;;;7.78;1.20;;;21.20;62.20;;;;;;6247974;23;20016;-74
2022/08/28 13:07:58;;;;;;;4.00;1.08;;;21.20;61.60;;;;;;6248146;23;20313;-73
2022/08/28 13:10:38;;;;;;;8.52;1.58;;;21.20;62.70;;;;;;6247662;23;20082;-74
2022/08/28 13:13:20;;;;;;;15.05;1.55;;;21.10;62.60;;;;;;6247961;23;20020;-76
2022/08/28 13:16:01;;;;;;;8.30;1.63;;;21.10;62.10;;;;;;6247806;23;20020;-75
2022/08/28 13:18:49;;;;;;;9.13;2.17;;;21.10;62.10;;;;;;6221719;23;20016;-74
2022/08/28 13:21:17;;;;;;;9.10;1.52;;;21.20;62.70;;;;;;6247976;23;20027;-74
2022/08/28 13:23:49;;;;;;;7.47;1.23;;;21.20;62.90;;;;;;6248520;23;20031;-74
2022/08/28 13:26:31;;;;;;;7.40;1.88;;;21.20;63.00;;;;;;6247717;23;20038;-78
2022/08/28 13:29:00;;;;;;;18.27;2.00;;;21.20;63.30;;;;;;6247576;23;20027;-74
2022/08/28 13:31:35;;;;;;;7.57;1.77;;;21.20;63.40;;;;;;6247748;23;20051;-74
2022/08/28 13:34:04;;;;;;;9.68;1.60;;;21.20;63.60;;;;;;6247710;23;20368;-75
2022/08/28 13:36:58;;;;;;;7.85;1.30;;;21.20;63.50;;;;;;6247437;23;20416;-75
2022/08/28 13:39:26;;;;;;;5.30;1.48;;;21.30;63.60;;;;;;6221189;23;20018;-76
2022/08/28 13:41:57;;;;;;;5.00;1.00;;;21.30;63.50;;;;;;6247737;23;20012;-75
2022/08/28 13:44:25;;;;;;;6.00;1.10;;;21.30;63.60;;;;;;6247691;23;20023;-75
2022/08/28 13:46:51;;;;;;;3.42;1.00;;;21.30;63.50;;;;;;6247727;23;20016;-73
2022/08/28 13:49:17;;;;;;;4.13;0.90;;;21.30;63.30;;;;;;6248682;23;20426;-79
2022/08/28 13:51:42;;;;;;;4.85;1.10;;;21.30;63.20;;;;;;6247375;23;20091;-78
2022/08/28 13:54:08;;;;;;;4.53;1.20;;;21.30;63.30;;;;;;6247970;23;20023;-77
2022/08/28 13:56:40;;;;;;;3.78;0.77;;;21.30;63.40;;;;;;6222353;23;20321;-80
2022/08/28 13:59:06;;;;;;;7.07;1.30;;;21.30;63.60;;;;;;6222848;23;20478;-77
2022/08/28 14:04:19;;;;;;;4.07;1.00;;;21.30;63.80;;;;;;6249444;23;20087;-77
2022/08/28 14:06:45;;;;;;;2.58;1.25;;;21.30;63.90;;;;;;6249062;23;20021;-78
2022/08/28 14:09:14;;;;;;;4.93;1.25;;;21.30;63.90;;;;;;6223580;23;20030;-82
2022/08/28 14:11:43;;;;;;;5.70;1.23;;;21.30;63.90;;;;;;6249066;23;20368;-78
2022/08/28 14:14:10;;;;;;;3.80;1.38;;;21.30;63.80;;;;;;6222801;23;20055;-78
2022/08/28 14:16:37;;;;;;;6.80;1.83;;;21.30;63.60;;;;;;6248902;23;20008;-78
2022/08/28 14:19:04;;;;;;;7.53;2.00;;;21.30;63.50;;;;;;6249268;23;20356;-74
2022/08/28 14:21:35;;;;;;;8.73;1.73;;;21.30;63.80;;;;;;6249190;23;20051;-75
2022/08/28 14:24:01;;;;;;;5.78;1.08;;;21.30;63.80;;;;;;6249183;23;20012;-76
2022/08/28 14:26:28;;;;;;;12.65;1.58;;;21.30;63.90;;;;;;6249170;23;20016;-76
2022/08/28 14:28:54;;;;;;;13.55;4.18;;;21.30;64.20;;;;;;6222410;23;20023;-75
2022/08/28 14:31:20;;;;;;;13.23;3.38;;;21.30;64.90;;;;;;6248831;23;20023;-75
2022/08/28 14:33:46;;;;;;;8.07;2.17;;;21.40;65.20;;;;;;6249195;23;20020;-76
2022/08/28 14:36:21;;;;;;;11.02;2.67;;;21.40;63.90;;;;;;6249474;23;20023;-79
2022/08/28 14:38:48;;;;;;;11.57;3.42;;;21.30;63.70;;;;;;6248566;23;20443;-77
2022/08/28 14:41:16;;;;;;;14.07;3.60;;;21.30;64.10;;;;;;6249473;23;20315;-75
2022/08/28 14:43:43;;;;;;;15.02;3.55;;;21.30;65.90;;;;;;6247885;23;20023;-77
2022/08/28 14:46:19;;;;;;;12.93;2.80;;;21.30;66.20;;;;;;6249564;23;20142;-81
2022/08/28 14:48:46;;;;;;;16.88;3.80;;;21.40;67.10;;;;;;6249547;23;20023;-78
2022/08/28 14:51:13;;;;;;;14.10;2.75;;;21.30;66.80;;;;;;6248882;23;20290;-79
2022/08/28 14:53:39;;;;;;;18.00;3.55;;;21.40;66.10;;;;;;6248992;23;20054;-79
2022/08/28 14:56:06;;;;;;;11.60;2.00;;;21.40;65.50;;;;;;6248633;23;20317;-79
2022/08/28 14:58:36;;;;;;;7.25;1.58;;;21.40;64.50;;;;;;6222852;23;20063;-80
2022/08/28 15:01:03;;;;;;;10.00;2.08;;;21.30;62.80;;;;;;6248738;23;20016;-80
2022/08/28 15:03:29;;;;;;;7.85;1.50;;;21.20;62.80;;;;;;6248144;23;20305;-76
2022/08/28 15:06:09;;;;;;;5.90;1.08;;;21.20;62.60;;;;;;6248853;23;20016;-80
2022/08/28 15:08:35;;;;;;;7.10;1.63;;;21.10;62.20;;;;;;6245779;23;20306;-78
2022/08/28 15:11:14;;;;;;;10.80;1.95;;;21.10;62.50;;;;;;6248754;23;20024;-80
2022/08/28 15:13:41;;;;;;;9.63;1.45;;;21.10;63.00;;;;;;6248463;23;20024;-79
2022/08/28 15:16:17;;;;;;;11.82;1.80;;;21.00;63.30;;;;;;6248558;23;20016;-78
2022/08/28 15:18:43;;;;;;;12.10;1.90;;;21.10;63.60;;;;;;6249760;23;20063;-78
2022/08/28 15:21:17;;;;;;;5.38;1.33;;;21.10;63.30;;;;;;6248447;23;20056;-75
2022/08/28 15:23:43;;;;;;;5.78;1.25;;;21.10;63.00;;;;;;6221418;23;20027;-78
2022/08/28 15:26:09;;;;;;;7.97;1.45;;;21.20;62.80;;;;;;6221655;23;20030;-76
2022/08/28 15:28:36;;;;;;;14.70;2.28;;;21.20;62.70;;;;;;6248045;23;20016;-78
2022/08/28 15:31:02;;;;;;;10.48;1.92;;;21.20;63.00;;;;;;6248323;23;20012;-78
2022/08/28 15:33:28;;;;;;;16.13;2.03;;;21.20;63.40;;;;;;6248380;23;20154;-76
2022/08/28 15:35:54;;;;;;;17.45;2.80;;;21.20;64.00;;;;;;6222459;23;20067;-73
2022/08/28 15:38:20;;;;;;;18.52;2.95;;;21.20;64.60;;;;;;6248299;23;20048;-78
2022/08/28 15:43:30;;;;;;;19.92;2.55;;;21.30;64.80;;;;;;6248489;23;20020;-76
2022/08/28 15:45:56;;;;;;;14.82;2.10;;;21.30;64.70;;;;;;6248220;23;20471;-75
2022/08/28 15:48:21;;;;;;;15.07;2.00;;;21.30;64.40;;;;;;6248526;23;20423;-73
2022/08/28 15:50:47;;;;;;;10.43;2.13;;;21.40;64.30;;;;;;6248349;23;20016;-79
2022/08/28 15:53:13;;;;;;;14.98;2.28;;;21.30;63.50;;;;;;6247957;23;20027;-75
2022/08/28 15:55:40;;;;;;;11.80;2.20;;;21.40;63.60;;;;;;6247651;23;20433;-75
2022/08/28 15:58:06;;;;;;;19.35;2.30;;;21.40;63.80;;;;;;6248337;23;20016;-75
2022/08/28 16:00:32;;;;;;;14.70;1.83;;;21.30;63.90;;;;;;6248279;23;20082;-76
2022/08/28 16:02:59;;;;;;;20.30;2.22;;;21.40;64.00;;;;;;6247503;23;20020;-75
2022/08/28 16:05:31;;;;;;;18.63;2.15;;;21.30;63.90;;;;;;6248008;23;20054;-75
2022/08/28 16:07:57;;;;;;;14.98;2.10;;;21.30;63.80;;;;;;6248849;23;20079;-75
2022/08/28 16:10:24;;;;;;;16.33;2.42;;;21.30;63.80;;;;;;6248197;23;20338;-75
2022/08/28 16:12:50;;;;;;;12.40;2.13;;;21.30;63.80;;;;;;6248077;23;20023;-75
2022/08/28 16:15:16;;;;;;;12.02;1.83;;;21.30;63.80;;;;;;6248255;23;20016;-73
2022/08/28 16:17:42;;;;;;;10.93;1.63;;;21.30;63.80;;;;;;6247418;23;20125;-76
2022/08/28 16:20:08;;;;;;;9.77;1.50;;;21.30;63.50;;;;;;6220991;23;20423;-76
2022/08/28 16:22:35;;;;;;;10.32;1.20;;;21.30;63.10;;;;;;6247312;23;20020;-76
2022/08/28 16:25:00;;;;;;;5.72;1.00;;;21.30;62.70;;;;;;6247487;23;20020;-77
2022/08/28 16:27:26;;;;;;;6.80;1.30;;;21.30;62.70;;;;;;6247684;23;20020;-77
2022/08/28 16:29:52;;;;;;;4.78;1.20;;;21.20;62.40;;;;;;6248129;23;20016;-77
2022/08/28 16:32:17;;;;;;;9.60;1.20;;;21.20;62.50;;;;;;6247312;23;20417;-78
2022/08/28 16:34:43;;;;;;;5.65;1.27;;;21.10;62.60;;;;;;6247539;23;20348;-76
2022/08/28 16:37:09;;;;;;;4.95;1.17;;;21.10;62.60;;;;;;6248038;23;20043;-78
2022/08/28 16:39:35;;;;;;;3.70;1.17;;;21.10;62.40;;;;;;6247719;23;20020;-76
2022/08/28 16:42:01;;;;;;;4.32;1.08;;;21.10;62.30;;;;;;6221215;23;20016;-79
2022/08/28 16:44:26;;;;;;;6.72;1.20;;;21.10;62.30;;;;;;6221640;23;20310;-77
2022/08/28 16:46:53;;;;;;;5.10;0.85;;;21.00;62.40;;;;;;6221830;23;20016;-78
2022/08/28 16:49:19;;;;;;;8.40;1.02;;;21.00;62.60;;;;;;6247873;23;20071;-78
2022/08/28 16:51:46;;;;;;;4.70;1.10;;;21.00;62.80;;;;;;6247963;23;20012;-80
2022/08/28 16:54:12;;;;;;;4.63;1.00;;;21.00;62.80;;;;;;6221537;23;20063;-79
2022/08/28 16:56:42;;;;;;;5.10;1.15;;;21.10;62.80;;;;;;6221276;23;20012;-79
2022/08/28 16:59:15;;;;;;;4.15;1.10;;;21.10;62.70;;;;;;6247813;23;20012;-81
2022/08/28 17:01:41;;;;;;;3.30;1.08;;;21.10;61.70;;;;;;6220492;23;20039;-81
2022/08/28 17:04:07;;;;;;;6.28;1.00;;;21.00;61.30;;;;;;6247601;23;20024;-80
2022/08/28 17:06:34;;;;;;;6.60;1.00;;;21.00;61.20;;;;;;6247854;23;20083;-81
2022/08/28 17:08:59;;;;;;;3.42;1.17;;;21.00;61.40;;;;;;6221727;23;20012;-81
2022/08/28 17:11:27;;;;;;;3.92;1.05;;;21.00;61.40;;;;;;6247642;23;20024;-81
2022/08/28 17:13:54;;;;;;;5.38;0.95;;;21.00;61.10;;;;;;6221215;23;20091;-78
2022/08/28 17:16:20;;;;;;;4.68;1.00;;;21.00;61.20;;;;;;6247882;23;20051;-79
2022/08/28 18:30:53;;;;;;;9.52;1.58;;;21.10;61.70;;;;;;6217279;23;20028;-79
2022/08/28 18:33:21;;;;;;;7.10;1.73;;;21.20;61.80;;;;;;6218691;23;20352;-79
2022/08/28 18:35:49;;;;;;;6.38;1.30;;;21.10;61.80;;;;;;6193783;23;20020;-80
2022/08/28 18:38:15;;;;;;;7.20;1.60;;;21.10;61.80;;;;;;6192306;23;20047;-81
2022/08/28 18:40:43;;;;;;;4.88;1.40;;;21.10;61.70;;;;;;6192499;23;20437;-81
2022/08/28 18:43:11;;;;;;;7.63;1.40;;;21.10;61.50;;;;;;6192391;23;20023;-80
2022/08/28 18:45:36;;;;;;;4.68;1.30;;;21.10;61.40;;;;;;6167958;23;20417;-80
2022/08/28 18:48:03;;;;;;;10.95;1.63;;;21.10;61.20;;;;;;6218860;23;20024;-81
2022/08/28 18:50:30;;;;;;;6.47;1.60;;;21.10;60.90;;;;;;6218561;23;20055;-80
2022/08/28 18:52:58;;;;;;;10.13;1.42;;;21.10;60.80;;;;;;6218210;23;20013;-80
2022/08/28 18:55:25;;;;;;;8.15;1.33;;;21.10;60.80;;;;;;6192111;23;20021;-78
2022/08/28 18:57:51;;;;;;;6.07;1.10;;;21.10;60.70;;;;;;6218543;23;20021;-77
2022/08/28 19:00:17;;;;;;;8.43;1.63;;;21.10;60.60;;;;;;6219007;23;20074;-77
2022/08/28 19:02:43;;;;;;;4.70;1.60;;;21.10;60.70;;;;;;6192779;23;20017;-78
2022/08/28 19:05:10;;;;;;;6.07;1.67;;;21.10;60.80;;;;;;6218434;23;20024;-78
2022/08/28 19:07:36;;;;;;;5.60;1.65;;;21.10;61.00;;;;;;6218560;23;20024;-77
2022/08/28 19:10:03;;;;;;;6.32;1.98;;;21.10;61.10;;;;;;6218620;23;20310;-78
2022/08/28 19:12:30;;;;;;;5.45;1.80;;;21.20;60.10;;;;;;6218122;23;20440;-78
2022/08/28 19:14:56;;;;;;;5.10;1.42;;;21.10;58.40;;;;;;6192268;23;20032;-79
2022/08/28 19:17:23;;;;;;;6.78;1.55;;;21.00;58.10;;;;;;6217957;23;20035;-77
2022/08/28 19:19:49;;;;;;;6.38;1.63;;;20.90;57.90;;;;;;6218335;23;20021;-77
2022/08/28 19:22:16;;;;;;;4.70;1.67;;;20.80;58.30;;;;;;6191909;23;20024;-78
2022/08/28 19:24:42;;;;;;;8.80;2.20;;;20.70;58.40;;;;;;6167246;23;20432;-71
2022/08/28 19:27:09;;;;;;;6.95;2.13;;;20.60;58.40;;;;;;6218298;23;20009;-78
2022/08/28 19:29:36;;;;;;;5.50;2.00;;;20.50;58.50;;;;;;6217668;23;20012;-75
2022/08/28 19:32:03;;;;;;;7.57;2.15;;;20.50;58.60;;;;;;6217687;23;20103;-74
2022/08/28 19:34:28;;;;;;;7.18;2.10;;;20.40;58.40;;;;;;6218043;23;20031;-75
2022/08/28 19:36:54;;;;;;;5.38;2.22;;;20.40;58.40;;;;;;6218036;23;20091;-75
2022/08/28 19:39:20;;;;;;;5.22;2.55;;;20.30;58.60;;;;;;6218049;23;20027;-74
2022/08/28 19:41:47;;;;;;;5.63;2.03;;;20.30;58.10;;;;;;6218062;23;20027;-76
2022/08/28 19:44:13;;;;;;;5.35;2.22;;;20.30;57.90;;;;;;6218188;23;20016;-76
2022/08/28 19:46:40;;;;;;;8.15;2.70;;;20.20;57.40;;;;;;6191786;23;20024;-76
2022/08/28 19:49:06;;;;;;;6.78;2.72;;;20.20;57.10;;;;;;6191680;23;20016;-76
2022/08/28 19:51:34;;;;;;;5.85;2.60;;;20.20;57.20;;;;;;6218072;23;20013;-74
2022/08/28 19:54:02;;;;;;;5.35;2.28;;;20.10;57.60;;;;;;6191725;23;20031;-75
2022/08/28 19:56:30;;;;;;;5.63;3.03;;;20.20;57.70;;;;;;6218002;23;20054;-76
2022/08/28 19:58:57;;;;;;;7.72;2.95;;;20.10;57.80;;;;;;6218221;23;20017;-74
2022/08/28 20:01:28;;;;;;;5.32;2.58;;;20.10;57.90;;;;;;6218016;23;20008;-74
2022/08/28 20:03:55;;;;;;;6.60;2.70;;;20.10;57.90;;;;;;6191694;23;20020;-74
2022/08/28 20:06:21;;;;;;;6.90;3.25;;;20.10;57.90;;;;;;6217997;23;20021;-75
2022/08/28 20:08:47;;;;;;;9.13;3.00;;;20.10;57.80;;;;;;6218044;23;20079;-75
2022/08/28 20:11:23;;;;;;;7.32;3.50;;;20.00;57.60;;;;;;6218209;23;20020;-74
2022/08/28 20:13:55;;;;;;;8.60;3.85;;;20.00;58.10;;;;;;6217913;23;20020;-76
2022/08/28 20:16:27;;;;;;;9.77;3.55;;;20.00;57.40;;;;;;6191371;23;20409;-75
2022/08/28 20:18:54;;;;;;;7.18;3.90;;;20.00;57.20;;;;;;6218026;23;20020;-74
2022/08/28 20:21:20;;;;;;;5.97;3.60;;;20.00;57.10;;;;;;6218004;23;20024;-75
2022/08/28 20:23:46;;;;;;;7.15;4.00;;;20.00;57.00;;;;;;6217909;23;20091;-76
2022/08/28 20:26:13;;;;;;;8.90;4.00;;;20.00;57.10;;;;;;6217909;23;20074;-75
2022/08/28 20:28:39;;;;;;;6.72;4.25;;;20.00;56.70;;;;;;6217644;23;20095;-75
2022/08/28 20:31:15;;;;;;;9.85;4.30;;;19.90;56.40;;;;;;6217624;23;20016;-77
2022/08/28 20:33:46;;;;;;;7.18;3.95;;;19.90;56.30;;;;;;6218321;23;20021;-73
2022/08/28 20:36:13;;;;;;;6.53;3.92;;;19.90;56.30;;;;;;6217801;23;20481;-75
2022/08/28 20:38:39;;;;;;;6.90;4.28;;;19.90;56.50;;;;;;6218490;23;20405;-74
2022/08/28 20:41:08;;;;;;;5.88;3.42;;;19.90;56.80;;;;;;6218013;23;20083;-74
2022/08/28 20:43:34;;;;;;;6.50;4.05;;;19.90;56.90;;;;;;6217518;23;20013;-75
2022/08/28 20:46:01;;;;;;;8.85;4.35;;;19.90;56.80;;;;;;6217864;23;20463;-74
2022/08/28 20:48:27;;;;;;;9.98;4.28;;;19.80;56.70;;;;;;6191736;23;20016;-74
2022/08/28 20:50:53;;;;;;;8.60;3.85;;;19.80;56.90;;;;;;6217490;23;20103;-74
2022/08/28 20:53:18;;;;;;;6.85;3.75;;;19.80;56.90;;;;;;6217893;23;20023;-73
2022/08/28 20:55:44;;;;;;;7.05;3.85;;;19.80;56.90;;;;;;6217656;23;20017;-73
2022/08/28 20:58:11;;;;;;;9.23;3.80;;;19.70;56.80;;;;;;6217350;23;20362;-74
2022/08/28 21:00:37;;;;;;;7.82;3.90;;;19.80;56.90;;;;;;6217790;23;20414;-74
2022/08/28 21:03:03;;;;;;;8.27;4.10;;;19.80;57.60;;;;;;6218288;23;20075;-74
2022/08/28 21:05:30;;;;;;;4.82;3.00;;;19.80;56.90;;;;;;6219747;23;20016;-75
2022/08/28 21:07:55;;;;;;;7.43;3.47;;;19.80;56.80;;;;;;6219809;23;20020;-75
2022/08/28 21:10:22;;;;;;;5.63;3.90;;;19.80;56.90;;;;;;6219860;23;20035;-74
2022/08/28 21:12:48;;;;;;;7.10;3.53;;;19.80;56.90;;;;;;6219582;23;20016;-74
2022/08/28 21:15:14;;;;;;;7.40;3.28;;;19.80;56.60;;;;;;6168208;23;20017;-77
